Flight Track Log - Related Links

Times and Time Zones

All times are in EDT time to prevent confusion due to time zone crossing. See the TCF3516 flight status page for this flight to view local times or setup timezone preferences in your user account.

Time Position Orientation Groundspeed Altitude Reporting Facility
EDT Latitude Longitude Course Direction KTS MPH feet Rate Location/Type
Mon 12:33:34 PM 39.7833 -104.6167 95° East 188 216 7,700  Level Denver TRACON
Mon 12:34:37 PM 39.7661 -104.5331 105° East 262 302 9,200 1,584 Climbing Denver Center
Mon 12:35:00 PM 39.7734 -104.0504 105° East  Level FlightAware Approximate
Mon 12:35:39 PM 39.7678 -104.4194 89° East 315 362 11,000  Level Denver Center
Mon 12:36:00 PM 39.7599 -103.8959 99° East  Level FlightAware Approximate
Mon 12:36:41 PM 39.7678 -104.2819 90° East 358 412 13,700  Level Denver Center
Mon 12:37:00 PM 39.7329 -103.7441 95° East  Level FlightAware Approximate
Mon 12:37:43 PM 39.7606 -104.1492 94° East 370 426 16,600  Level Denver Center
Mon 12:38:00 PM 39.7226 -103.5884 95° East  Level FlightAware Approximate
Mon 12:38:45 PM 39.7567 -104.0058 92° East 372 428 19,200  Level Denver Center
Mon 12:39:47 PM 39.7514 -103.8658 93° East 387 445 21,300 1,790 Climbing Denver Center
Mon 12:40:49 PM 39.7475 -103.7250 92° East 393 452 22,900 1,645 Climbing Denver Center
Mon 12:41:51 PM 39.7439 -103.5756 92° East 406 467 24,700 1,694 Climbing Denver Center
Mon 12:42:53 PM 39.7394 -103.4200 92° East 424 488 26,400 1,645 Climbing Denver Center
Mon 12:43:55 PM 39.7269 -103.2364 95° East 432 497 28,100 1,597 Climbing Denver Center
Mon 12:44:57 PM 39.7106 -103.0775 98° East 438 504 29,700 1,584 Climbing Denver Center
Mon 12:46:00 PM 39.6947 -102.9217 97° East 433 498 31,400 1,440 Climbing Denver Center
Mon 12:47:02 PM 39.6786 -102.7692 98° East 425 489 32,700 774 Climbing Denver Center
Mon 12:48:04 PM 39.6644 -102.6214 97° East 423 487 33,000 145 Climbing Denver Center
Mon 12:49:06 PM 39.6464 -102.4533 98° East 421 484 33,000  Level Denver Center
Mon 12:50:08 PM 39.6311 -102.3067 98° East 428 493 33,000  Level Denver Center
Mon 12:51:10 PM 39.6111 -102.1264 98° East 451 519 33,000  Level Denver Center
Mon 12:52:12 PM 39.5933 -101.9667 98° East 467 537 33,000  Level Denver Center
Mon 12:53:14 PM 39.5725 -101.7750 98° East 480 552 33,000  Level Denver Center
Mon 12:54:16 PM 39.5544 -101.6111 98° East 482 555 33,000  Level Denver Center
Mon 12:55:18 PM 39.5322 -101.4214 99° East 480 552 33,000  Level Denver Center
Mon 12:56:20 PM 39.5131 -101.2572 99° East 482 555 33,000  Level Denver Center
Mon 12:57:22 PM 39.4903 -101.0619 99° East 491 565 33,000  Level Denver Center
Mon 12:58:24 PM 39.4711 -100.8958 98° East 489 563 33,000  Level Denver Center
Mon 12:59:26 PM 39.4475 -100.7025 99° East 489 563 33,000  Level Denver Center
Mon 01:00:28 PM 39.4267 -100.5314 99° East 499 574 33,000  Level Denver Center
Mon 01:01:30 PM 39.4017 -100.3328 99° East 502 578 33,000  Level Denver Center
Mon 01:02:32 PM 39.3803 -100.1622 99° East 503 579 33,000  Level Denver Center
Mon 01:03:34 PM 39.3553 -99.9619 99° East 506 582 33,000  Level Denver Center
Mon 01:04:36 PM 39.3331 -99.7914 100° East 504 580 33,000  Level Denver Center
Mon 01:05:38 PM 39.3072 -99.5914 99° East 507 583 33,000  Level Denver Center
Mon 01:06:40 PM 39.2844 -99.4200 100° East 506 582 33,000  Level Denver Center
Mon 01:07:42 PM 39.2614 -99.2494 100° East 507 583 33,000  Level Denver Center
Mon 01:08:44 PM 39.2350 -99.0503 100° East 506 582 33,000  Level Denver Center
Mon 01:09:46 PM 39.2100 -98.8678 100° East 505 581 33,000  Level Denver Center
Mon 01:10:48 PM 39.1844 -98.6886 100° East 509 586 33,000  Level Denver Center
Mon 01:11:50 PM 39.1600 -98.5103 100° East 508 585 33,000  Level Denver Center
Mon 01:12:53 PM 39.1356 -98.3342 100° East 502 578 33,000  Level Denver Center
Mon 01:13:59 PM 39.1075 -98.1375 100° East 505 581 33,000  Level Kansas City Center
Mon 01:15:01 PM 39.0808 -97.9619 101° East 501 577 33,000  Level Kansas City Center
Mon 01:16:03 PM 39.0506 -97.7500 100° East 498 573 33,000  Level Kansas City Center
Mon 01:17:05 PM 39.0256 -97.5828 101° East 497 572 33,000  Level Kansas City Center
Mon 01:18:07 PM 38.9964 -97.3892 101° East 494 568 33,000  Level Kansas City Center
Mon 01:19:09 PM 38.9714 -97.2272 101° East 495 570 33,000  Level Kansas City Center
Mon 01:20:11 PM 38.9450 -97.0531 101° East 495 570 33,000  Level Kansas City Center
Mon 01:21:13 PM 38.9175 -96.8769 101° East 499 574 33,000  Level Kansas City Center
Mon 01:22:15 PM 38.8900 -96.7028 101° East 499 574 33,000  Level Kansas City Center
Mon 01:23:17 PM 38.8567 -96.4922 101° East 499 574 33,000  Level Kansas City Center
Mon 01:24:19 PM 38.8253 -96.3042 102° East 503 579 33,000  Level Kansas City Center
Mon 01:25:22 PM 38.7983 -96.1378 102° East 502 578 33,000  Level Kansas City Center
Mon 01:26:24 PM 38.7717 -95.9744 102° East 495 570 33,000  Level Kansas City Center
Mon 01:27:26 PM 38.7411 -95.7833 102° East 493 567 33,000  Level Kansas City Center
Mon 01:28:28 PM 38.7125 -95.6181 102° East 497 572 33,000  Level Kansas City Center
Mon 01:29:30 PM 38.6808 -95.4253 102° East 501 577 33,000  Level Kansas City Center
Mon 01:30:32 PM 38.6533 -95.2606 102° East 498 573 33,000  Level Kansas City Center
Mon 01:31:34 PM 38.6203 -95.0731 103° East 490 564 33,000  Level Kansas City Center
Mon 01:32:36 PM 38.5914 -94.9086 103° East 495 570 33,000  Level Kansas City Center
Mon 01:33:38 PM 38.5592 -94.7197 102° East 491 565 33,000  Level Kansas City Center
Mon 01:34:40 PM 38.5289 -94.5567 103° East 493 567 33,000  Level Kansas City Center
Mon 01:35:42 PM 38.4950 -94.3650 103° East 496 571 33,000  Level Kansas City Center
Mon 01:36:44 PM 38.4653 -94.2028 103° East 494 568 33,000  Level Kansas City Center
Mon 01:37:46 PM 38.4314 -94.0144 103° East 490 564 33,000  Level Kansas City Center
Mon 01:38:48 PM 38.4022 -93.8422 102° East 494 568 33,000  Level Kansas City Center
Mon 01:39:50 PM 38.3703 -93.6728 103° East 491 565 33,000  Level Kansas City Center
Mon 01:40:52 PM 38.3367 -93.5036 104° East 491 565 33,000  Level Kansas City Center
Mon 01:41:54 PM 38.3064 -93.3328 103° East 494 568 33,000  Level Kansas City Center
Mon 01:42:56 PM 38.2672 -93.1297 104° East 493 567 33,000  Level Kansas City Center
Mon 01:43:58 PM 38.2353 -92.9603 103° East 490 564 33,000  Level Kansas City Center
Mon 01:45:00 PM 38.2008 -92.7917 105° East 490 564 33,000  Level Kansas City Center
Mon 01:46:02 PM 38.1692 -92.6194 103° East 496 571 33,000  Level Kansas City Center
Mon 01:47:04 PM 38.1328 -92.4497 105° East 498 573 33,000  Level Kansas City Center
Mon 01:48:06 PM 38.1047 -92.2847 102° East 492 566 33,000  Level Kansas City Center
Mon 01:49:08 PM 38.0689 -92.1161 105° East 495 570 33,000  Level Kansas City Center
Mon 01:50:10 PM 38.0311 -91.9314 105° East 495 570 33,000  Level Kansas City Center
Mon 01:51:12 PM 37.9975 -91.7633 104° East 492 566 33,000  Level Kansas City Center
Mon 01:52:14 PM 37.9553 -91.5622 105° East 490 564 33,000  Level Kansas City Center
Mon 01:53:16 PM 37.9181 -91.3969 106° East 488 562 33,000  Level Kansas City Center
Mon 01:54:18 PM 37.8583 -91.2417 116° Southeast 487 560 33,000  Level Kansas City Center
Mon 01:55:20 PM 37.7978 -91.0878 116° Southeast 488 562 33,000  Level Kansas City Center
Mon 01:56:22 PM 37.7317 -90.9272 117° Southeast 490 564 33,000  Level Kansas City Center
Mon 01:57:24 PM 37.6683 -90.7764 118° Southeast 490 564 33,000  Level Kansas City Center
Mon 01:58:26 PM 37.6075 -90.6256 117° Southeast 487 560 33,000 -48 Level Kansas City Center
Mon 01:59:29 PM 37.5442 -90.4769 118° Southeast 485 558 32,900 -672 Descending Kansas City Center
Mon 02:00:31 PM 37.4844 -90.3222 116° Southeast 489 563 31,600 -919 Descending Kansas City Center
Mon 02:01:33 PM 37.4633 -90.1217 97° East 485 558 31,000 -290 Descending Kansas City Center
Mon 02:02:35 PM 37.4475 -89.9608 97° East 472 543 31,000  Level Kansas City Center
Mon 02:03:37 PM 37.4303 -89.7947 97° East 473 544 31,000  Level Kansas City Center
Mon 02:04:39 PM 37.4142 -89.6250 97° East 478 550 31,000  Level Kansas City Center
Mon 02:05:41 PM 37.3972 -89.4553 97° East 485 558 31,000  Level Kansas City Center
Mon 02:06:43 PM 37.3769 -89.2539 97° East 484 557 31,000  Level Kansas City Center
Mon 02:07:45 PM 37.3419 -89.0906 105° East 483 556 31,000  Level Kansas City Center
Mon 02:08:47 PM 37.3014 -88.9328 108° East 475 547 31,000  Level Kansas City Center
Mon 02:09:57 PM 37.2567 -88.7439 107° East 478 550 31,000  Level Memphis Center
Mon 02:10:57 PM 37.2150 -88.5858 108° East 478 550 31,000  Level Memphis Center
Mon 02:11:57 PM 37.1753 -88.4278 107° East 478 550 31,000  Level Memphis Center
Mon 02:12:46 PM 37.1333 -88.2911 111° Southeast 480 552 31,000 -1,350 Level Memphis Center
Mon 02:13:57 PM 37.0864 -88.0997 107° East 485 558 28,300 -2,427 Descending Memphis Center
Mon 02:14:57 PM 37.0458 -87.9425 108° East 485 558 25,700 -2,650 Descending Memphis Center
Mon 02:15:57 PM 37.0075 -87.7956 108° East 461 531 23,000 -2,560 Descending Memphis Center
Mon 02:16:12 PM 36.9964 -87.7622 113° Southeast 455 524 22,500 -2,000 Descending Memphis Center
Mon 02:16:57 PM 36.9714 -87.6642 108° East 456 525 21,000 -2,171 Descending Memphis Center
Mon 02:17:57 PM 36.9328 -87.5175 108° East 438 504 18,700 -2,382 Descending Memphis Center
Mon 02:19:08 PM 36.8806 -87.3431 110° East 409 471 15,800 -2,200 Descending Memphis Center
Mon 02:19:57 PM 36.8617 -87.2531 105° East 409 471 14,300 -1,982 Descending Memphis Center
Mon 02:20:57 PM 36.8211 -87.1275 112° Southeast 392 451 12,200 -1,100 Descending Memphis Center
Mon 02:21:57 PM 36.7336 -87.0508 145° Southeast 365 420 12,100 -50 Descending Memphis Center
Mon 02:22:57 PM 36.6297 -86.9853 153° Southeast 376 433 12,100 50 Level Memphis Center
Mon 02:23:57 PM 36.5342 -86.9272 154° Southeast 381 438 12,200 -1,550 Climbing Memphis Center
Mon 02:24:57 PM 36.4389 -86.8669 153° Southeast 386 444 9,000 -1,250 Descending Memphis Center
Mon 02:25:57 PM 36.3603 -86.8186 154° Southeast 349 402 9,700 -300 Climbing Memphis Center
Mon 02:26:57 PM 36.2925 -86.7806 156° South 308 354 8,400 -1,450 Descending Memphis Center
Mon 02:27:57 PM 36.2208 -86.7528 163° South 281 323 6,800 -1,500 Descending Memphis Center
Mon 02:28:57 PM 36.1569 -86.7814 200° South 244 281 5,400 -1,750 Descending Memphis Center
Mon 02:29:57 PM 36.0931 -86.8047 196° South 230 265 3,300 -1,200 Descending Memphis Center
Mon 02:30:57 PM 36.0444 -86.7836 161° South 196 226 3,000 -650 Descending Memphis Center
Mon 02:31:57 PM 36.0403 -86.7144 94° East 165 190 2,000 -942 Descending Memphis Center
Mon 02:32:58 PM 36.0794 -86.6947 22° Northeast 116 133 1,100 -600 Descending Memphis Center
Mon 02:33:57 PM 36.0975 -86.6708 47° Northeast 109 125 800 -305 Descending Memphis Center

Login

Don't have an account? Register now (free) for customized features, flight alerts, and more!